This is the latest recevied weather packets stored in our database for station/object KQ4TV-2. If no packets are shown the sender has not sent any weather packets the latest 10 day(s).
| Time | Temp. | Humidity | Pressure | Rain* | Wind** | Luminosity | Snow |
|---|---|---|---|---|---|---|---|
| 1787611111 | 30° C | 43% | - | 0 mm | - | - | - |
| 1787610870 | 30° C | 42% | - | 0 mm | - | - | - |
| 1787610749 | 30° C | 42% | - | 0 mm | - | - | - |
| 1787610386 | 30.56° C | 43% | - | 0 mm | - | - | - |
| 1787610023 | 30° C | 41% | - | 0 mm | - | - | - |
| 1787609661 | 30° C | 41% | - | 0 mm | - | - | - |
| 1787609540 | 30° C | 41% | - | 0 mm | - | - | - |
| 1787608332 | 30.56° C | 42% | - | 0 mm | - | - | - |
| 1787607866 | 30° C | 44% | - | 0 mm | - | - | - |
| 1787604120 | 30° C | 46% | - | 0 mm | - | - | - |
| 1787586378 | 27.22° C | 62% | - | 0 mm | - | - | - |
| 1787560861 | 17.78° C | 93% | - | 0 mm | - | - | - |
| 1787560758 | 17.78° C | 93% | - | 0 mm | - | - | - |
| 1787556528 | 18.33° C | 91% | - | 0 mm | - | - | - |
| 1787545535 | 20.56° C | 84% | - | 0 mm | - | - | - |
| 1787545530 | 20.56° C | 84% | - | 0 mm | - | - | - |
| 1787544442 | 21.11° C | 82% | - | 0 mm | - | - | - |
| 1787540696 | 22.22° C | 77% | - | 0 mm | - | - | - |
| 1787531874 | 25.56° C | 65% | - | 0 mm | - | - | - |
| 1787531511 | 25.56° C | 64% | - | 0 mm | - | - | - |
| 1787531390 | 26.11° C | 64% | - | 0 mm | - | - | - |
| 1787530544 | 26.67° C | 61% | - | 0 mm | - | - | - |
| 1787522326 | 30.56° C | 49% | - | 0 mm | - | - | - |
| 1787516563 | 29.44° C | 55% | - | 0 mm | - | - | - |
| 1787515717 | 30° C | 51% | - | 0 mm | - | - | - |
* Rain since midnight (hover to see other rain measurements)
** Current wind speed in m/s (hover to see current wind gust speed)